Time;durP1;ratioP1;P1;durP2;ratioP2;P2;SDS_P1;SDS_P2;PMS_P1;PMS_P2;Temp;Humidity;BMP_temperature;BMP_pressure;BME280_temperature;BME280_humidity;BME280_pressure;Samples;Min_cycle;Max_cycle;Signal;HPM_P1;HPM_P2
2022/03/06 00:00:30;;;;;;;8.20;6.80;;;16.70;47.40;;;;;;5052747;28;20218;-67
2022/03/06 00:02:56;;;;;;;7.43;6.72;;;16.80;47.40;;;;;;5053317;28;20174;-67
2022/03/06 00:05:21;;;;;;;8.45;7.65;;;16.80;47.50;;;;;;5051977;28;20176;-66
2022/03/06 00:07:47;;;;;;;6.85;6.25;;;16.70;47.50;;;;;;5053015;28;20536;-67
2022/03/06 00:10:12;;;;;;;6.88;6.18;;;16.70;47.50;;;;;;5052671;28;20673;-68
2022/03/06 00:12:38;;;;;;;6.95;6.25;;;16.70;47.60;;;;;;5052284;28;20186;-68
2022/03/06 00:15:04;;;;;;;7.97;7.18;;;16.70;47.60;;;;;;5052884;28;20178;-68
2022/03/06 00:17:29;;;;;;;7.53;6.82;;;16.70;47.70;;;;;;5052321;28;20228;-68
2022/03/06 00:19:55;;;;;;;7.53;6.75;;;16.70;47.60;;;;;;5052227;28;20202;-68
2022/03/06 00:22:20;;;;;;;7.72;6.93;;;16.60;47.60;;;;;;5052528;28;20187;-68
2022/03/06 00:24:46;;;;;;;6.80;6.20;;;16.60;47.60;;;;;;5052878;28;20606;-69
2022/03/06 00:27:12;;;;;;;7.22;6.53;;;16.60;47.60;;;;;;5051608;28;20175;-68
2022/03/06 00:29:37;;;;;;;7.10;6.25;;;16.60;47.70;;;;;;5052846;28;20179;-69
2022/03/06 00:32:03;;;;;;;6.90;6.25;;;16.60;47.70;;;;;;5052843;28;20215;-67
2022/03/06 00:34:29;;;;;;;6.88;6.28;;;16.60;47.80;;;;;;5051788;28;20175;-67
2022/03/06 00:36:54;;;;;;;7.25;6.55;;;16.60;47.80;;;;;;5052752;28;20229;-67
2022/03/06 00:39:20;;;;;;;7.43;6.78;;;16.60;47.70;;;;;;5052222;28;20219;-67
2022/03/06 00:41:46;;;;;;;7.32;6.63;;;16.60;47.80;;;;;;5051772;28;20615;-68
2022/03/06 00:44:11;;;;;;;6.00;5.50;;;16.50;47.70;;;;;;5050842;28;20642;-68
2022/03/06 00:46:36;;;;;;;6.93;6.32;;;16.50;47.80;;;;;;5051986;28;20174;-69
2022/03/06 00:49:02;;;;;;;6.47;5.88;;;16.60;47.90;;;;;;5052686;28;20186;-68
2022/03/06 00:51:28;;;;;;;7.90;7.07;;;16.50;47.80;;;;;;5052297;28;20173;-68
2022/03/06 00:53:53;;;;;;;6.45;5.90;;;16.50;47.80;;;;;;5051508;28;20576;-69
2022/03/06 00:56:19;;;;;;;7.28;6.55;;;16.50;47.80;;;;;;5052277;28;20183;-68
2022/03/06 00:58:44;;;;;;;6.72;6.13;;;16.50;47.90;;;;;;5052112;28;20206;-69
2022/03/06 01:01:10;;;;;;;6.47;5.95;;;16.50;47.90;;;;;;5051508;28;20220;-68
2022/03/06 01:03:35;;;;;;;7.05;6.30;;;16.50;47.90;;;;;;5052327;28;20187;-67
2022/03/06 01:06:01;;;;;;;6.80;6.20;;;16.40;47.90;;;;;;5052370;28;20619;-67
2022/03/06 01:08:35;;;;;;;6.53;5.93;;;16.40;48.50;;;;;;5051326;28;20195;-67
2022/03/06 01:11:02;;;;;;;7.22;6.53;;;16.40;47.90;;;;;;5053848;28;20253;-68
2022/03/06 01:13:27;;;;;;;7.07;6.47;;;16.40;47.90;;;;;;5055945;28;20225;-68
2022/03/06 01:15:53;;;;;;;6.47;5.85;;;16.40;48.00;;;;;;5055793;28;20175;-68
2022/03/06 01:18:20;;;;;;;7.00;6.40;;;16.40;47.90;;;;;;5055811;28;20228;-68
2022/03/06 01:20:45;;;;;;;7.22;6.55;;;16.40;48.00;;;;;;5056111;28;20171;-68
2022/03/06 01:23:11;;;;;;;6.75;6.15;;;16.40;48.00;;;;;;5054979;28;20178;-68
2022/03/06 01:25:36;;;;;;;6.35;5.75;;;16.30;48.00;;;;;;5056182;28;20179;-69
2022/03/06 01:28:02;;;;;;;6.63;5.97;;;16.40;48.00;;;;;;5055938;28;20171;-68
2022/03/06 01:30:28;;;;;;;6.65;5.80;;;16.30;48.00;;;;;;5055172;28;20167;-68
2022/03/06 01:32:54;;;;;;;7.18;6.47;;;16.30;48.00;;;;;;5055998;28;20302;-67
2022/03/06 01:35:20;;;;;;;7.00;6.32;;;16.30;48.00;;;;;;5055553;28;20175;-67
2022/03/06 01:37:45;;;;;;;6.05;5.45;;;16.30;48.00;;;;;;5055329;28;20665;-67
2022/03/06 01:40:11;;;;;;;6.25;5.65;;;16.30;48.00;;;;;;5055378;28;20679;-67
2022/03/06 01:42:43;;;;;;;6.90;6.20;;;16.30;48.10;;;;;;5055565;28;20654;-68
2022/03/06 01:45:09;;;;;;;6.18;5.68;;;16.30;48.10;;;;;;5054559;28;20202;-68
2022/03/06 01:47:42;;;;;;;6.45;5.85;;;16.30;48.10;;;;;;5055904;28;20627;-68
2022/03/06 01:50:09;;;;;;;6.45;5.85;;;16.30;48.10;;;;;;5054705;28;20342;-68
2022/03/06 01:52:34;;;;;;;6.40;5.80;;;16.20;48.10;;;;;;5055589;28;20175;-68
2022/03/06 01:55:00;;;;;;;7.03;6.38;;;16.20;48.10;;;;;;5055311;28;20276;-68
2022/03/06 01:57:26;;;;;;;6.55;5.95;;;16.20;48.10;;;;;;5054656;28;20179;-68
2022/03/06 01:59:51;;;;;;;6.15;5.65;;;16.20;48.10;;;;;;5054097;28;20207;-67
2022/03/06 02:02:17;;;;;;;6.35;5.75;;;16.20;48.10;;;;;;5055317;28;20167;-67
2022/03/06 02:04:45;;;;;;;7.15;6.45;;;16.20;48.20;;;;;;5053417;28;20179;-67
2022/03/06 02:07:11;;;;;;;6.50;5.90;;;16.20;48.10;;;;;;5055121;28;20179;-67
2022/03/06 02:09:36;;;;;;;5.90;5.30;;;16.20;48.20;;;;;;5055248;28;20258;-68
2022/03/06 02:14:46;;;;;;;5.68;5.18;;;16.10;48.20;;;;;;5055219;28;20187;-68
2022/03/06 02:17:11;;;;;;;6.15;5.53;;;16.10;48.20;;;;;;5054793;28;20168;-68
2022/03/06 02:20:10;;;;;;;6.05;5.55;;;16.10;48.20;;;;;;5052956;28;20207;-69
2022/03/06 02:22:37;;;;;;;5.85;5.25;;;16.10;48.30;;;;;;5042525;28;20719;-69
2022/03/06 02:25:09;;;;;;;6.35;5.78;;;16.10;48.30;;;;;;5054303;28;20258;-69
2022/03/06 02:27:35;;;;;;;5.72;5.22;;;16.10;48.30;;;;;;5055161;28;20254;-69
2022/03/06 02:30:03;;;;;;;6.30;5.75;;;16.10;48.30;;;;;;5054755;28;20187;-68
2022/03/06 02:32:29;;;;;;;5.82;5.30;;;16.10;48.30;;;;;;5053794;28;20181;-67
2022/03/06 02:34:54;;;;;;;5.75;5.25;;;16.10;48.30;;;;;;5053796;28;20171;-67
2022/03/06 02:37:20;;;;;;;5.30;4.80;;;16.00;48.30;;;;;;5054631;28;20171;-67
2022/03/06 02:39:46;;;;;;;5.57;5.07;;;16.00;48.30;;;;;;5054038;28;20218;-68
2022/03/06 02:42:34;;;;;;;6.20;5.60;;;16.00;48.30;;;;;;5054301;28;20171;-68
2022/03/06 02:45:01;;;;;;;5.70;5.20;;;16.00;48.30;;;;;;5054542;28;20633;-69
2022/03/06 02:47:27;;;;;;;5.18;4.78;;;16.00;48.40;;;;;;5053729;28;20189;-69
2022/03/06 02:49:52;;;;;;;6.10;5.53;;;16.00;48.30;;;;;;5054722;28;20171;-69
2022/03/06 02:52:18;;;;;;;5.75;5.15;;;16.00;48.40;;;;;;5054241;28;20199;-69
2022/03/06 02:54:43;;;;;;;5.72;5.22;;;16.00;48.40;;;;;;5053680;28;20654;-68
2022/03/06 02:57:09;;;;;;;5.50;5.00;;;16.00;48.40;;;;;;5054014;28;20179;-68
2022/03/06 02:59:35;;;;;;;5.47;5.07;;;16.00;48.40;;;;;;5054228;28;20207;-68
2022/03/06 03:02:00;;;;;;;5.85;5.32;;;16.00;48.40;;;;;;5053739;28;20176;-68
2022/03/06 03:04:26;;;;;;;5.25;4.85;;;15.90;48.40;;;;;;5053929;28;20625;-68
2022/03/06 03:06:52;;;;;;;5.70;5.22;;;15.90;48.40;;;;;;5054433;28;20178;-70
2022/03/06 03:09:21;;;;;;;5.63;5.20;;;15.90;48.40;;;;;;5053250;28;20179;-68
2022/03/06 03:11:47;;;;;;;6.07;5.55;;;15.90;48.40;;;;;;5054206;28;20254;-69
2022/03/06 03:14:13;;;;;;;5.60;5.10;;;15.90;48.50;;;;;;5053202;28;20194;-69
2022/03/06 03:16:39;;;;;;;5.53;5.03;;;15.90;48.50;;;;;;5054152;28;20524;-68
2022/03/06 03:19:05;;;;;;;5.68;5.18;;;15.90;48.50;;;;;;5053715;28;20715;-68
2022/03/06 03:21:30;;;;;;;5.50;5.00;;;15.90;48.50;;;;;;5053156;28;20175;-68
2022/03/06 03:23:56;;;;;;;5.78;5.30;;;15.80;48.40;;;;;;5053960;28;20171;-68
2022/03/06 03:26:21;;;;;;;5.53;5.03;;;15.90;48.50;;;;;;5053348;28;20211;-69
2022/03/06 03:28:47;;;;;;;5.63;5.13;;;15.90;48.50;;;;;;5052909;28;20725;-68
2022/03/06 03:31:13;;;;;;;5.90;5.40;;;15.80;48.50;;;;;;5053610;28;20168;-68
2022/03/06 03:33:38;;;;;;;5.68;5.18;;;15.80;48.50;;;;;;5052848;28;20171;-67
2022/03/06 03:36:04;;;;;;;5.47;4.97;;;15.80;48.60;;;;;;5052966;28;20174;-68
2022/03/06 03:38:29;;;;;;;6.03;5.53;;;15.80;48.50;;;;;;5053060;28;20179;-67
2022/03/06 03:40:55;;;;;;;5.57;5.18;;;15.80;48.60;;;;;;5053468;28;20179;-68
2022/03/06 03:43:23;;;;;;;5.40;4.90;;;15.80;48.60;;;;;;5052472;28;20167;-69
2022/03/06 03:45:49;;;;;;;4.90;4.50;;;15.80;48.60;;;;;;5053556;28;20183;-68
2022/03/06 03:48:15;;;;;;;5.43;5.03;;;15.80;48.60;;;;;;5053230;28;20174;-68
2022/03/06 03:50:40;;;;;;;5.35;4.85;;;15.80;48.60;;;;;;5052771;28;20171;-68
2022/03/06 03:53:06;;;;;;;5.40;5.00;;;15.70;48.60;;;;;;5053117;28;20175;-68
2022/03/06 03:55:31;;;;;;;5.65;5.15;;;15.70;48.60;;;;;;5053055;28;20231;-68
2022/03/06 03:57:56;;;;;;;5.28;4.88;;;15.70;48.60;;;;;;5052420;28;20175;-68
2022/03/06 04:00:22;;;;;;;5.72;5.22;;;15.70;48.60;;;;;;5052767;28;20222;-67
2022/03/06 04:02:48;;;;;;;5.63;5.13;;;15.70;48.60;;;;;;5053212;28;20642;-67
2022/03/06 04:05:13;;;;;;;4.88;4.47;;;15.70;48.60;;;;;;5052123;28;20228;-67
2022/03/06 04:07:39;;;;;;;5.55;5.05;;;15.70;48.60;;;;;;5053071;28;20182;-68
2022/03/06 04:10:04;;;;;;;5.03;4.60;;;15.70;48.70;;;;;;5053052;28;20603;-68
2022/03/06 04:12:30;;;;;;;5.00;4.60;;;15.70;48.70;;;;;;5051889;28;20178;-68
2022/03/06 04:14:55;;;;;;;5.47;5.03;;;15.60;48.60;;;;;;5053086;28;20248;-69
2022/03/06 04:17:21;;;;;;;4.90;4.50;;;15.60;48.60;;;;;;5052777;28;20164;-68
2022/03/06 04:19:46;;;;;;;4.95;4.55;;;15.60;48.60;;;;;;5051989;28;20613;-69
2022/03/06 04:22:12;;;;;;;5.18;4.78;;;15.60;48.70;;;;;;5052539;28;20217;-68
2022/03/06 04:24:37;;;;;;;4.85;4.45;;;15.60;48.70;;;;;;5052086;28;20207;-68
2022/03/06 04:27:03;;;;;;;5.30;4.88;;;15.60;48.70;;;;;;5052697;28;20179;-68
2022/03/06 04:29:30;;;;;;;4.88;4.50;;;15.60;48.70;;;;;;5052482;28;20551;-69
2022/03/06 04:31:55;;;;;;;5.18;4.68;;;15.60;48.70;;;;;;5052137;28;20174;-68
2022/03/06 04:34:21;;;;;;;5.13;4.65;;;15.60;48.70;;;;;;5052169;28;20171;-66
2022/03/06 04:36:47;;;;;;;5.32;4.88;;;15.60;48.70;;;;;;5052853;28;20179;-68
2022/03/06 04:39:12;;;;;;;5.85;5.35;;;15.60;48.70;;;;;;5051487;28;20566;-67
2022/03/06 04:41:38;;;;;;;5.38;4.90;;;15.60;48.70;;;;;;5052466;28;20182;-68
2022/03/06 04:44:06;;;;;;;4.88;4.47;;;15.60;48.70;;;;;;5052711;28;20186;-69
2022/03/06 04:46:32;;;;;;;5.18;4.68;;;15.50;48.70;;;;;;5051700;28;20642;-69
2022/03/06 04:48:57;;;;;;;5.25;4.82;;;15.50;48.70;;;;;;5052360;28;20252;-70
2022/03/06 04:51:23;;;;;;;5.05;4.65;;;15.50;48.80;;;;;;5052143;28;20183;-69
2022/03/06 04:53:48;;;;;;;5.20;4.80;;;15.50;48.70;;;;;;5051613;28;20217;-69
2022/03/06 04:56:14;;;;;;;5.50;4.97;;;15.50;48.80;;;;;;5052132;28;20546;-68
2022/03/06 04:58:39;;;;;;;5.20;4.80;;;15.50;48.80;;;;;;5052477;28;20175;-69
2022/03/06 05:01:05;;;;;;;5.68;5.18;;;15.50;48.80;;;;;;5051758;28;20229;-68
2022/03/06 05:03:30;;;;;;;5.03;4.50;;;15.50;48.80;;;;;;5052169;28;20538;-67
2022/03/06 05:05:56;;;;;;;4.97;4.53;;;15.50;48.90;;;;;;5052463;28;20267;-68
2022/03/06 05:08:22;;;;;;;4.90;4.50;;;15.50;48.80;;;;;;5051290;28;20164;-69
2022/03/06 05:10:47;;;;;;;5.00;4.60;;;15.50;48.80;;;;;;5052262;28;20167;-69
2022/03/06 05:13:13;;;;;;;5.57;5.15;;;15.40;48.80;;;;;;5052239;28;20691;-68
2022/03/06 05:15:38;;;;;;;5.68;5.18;;;15.40;48.80;;;;;;5051723;28;20580;-70
2022/03/06 05:18:04;;;;;;;5.03;4.63;;;15.40;48.80;;;;;;5052533;28;20638;-69
2022/03/06 05:20:30;;;;;;;5.25;4.78;;;15.40;48.90;;;;;;5051578;28;20214;-68
2022/03/06 05:22:55;;;;;;;5.18;4.68;;;15.40;48.90;;;;;;5051369;28;20657;-68
2022/03/06 05:25:21;;;;;;;5.25;4.82;;;15.40;48.90;;;;;;5051614;28;20199;-68
2022/03/06 05:27:46;;;;;;;4.85;4.45;;;15.40;48.90;;;;;;5052216;28;20594;-68
2022/03/06 05:30:13;;;;;;;4.85;4.35;;;15.40;48.90;;;;;;5051236;28;20176;-68
2022/03/06 05:32:38;;;;;;;4.40;4.10;;;15.40;48.90;;;;;;5051871;28;20222;-67
2022/03/06 05:35:04;;;;;;;4.88;4.38;;;15.40;48.90;;;;;;5051231;28;20217;-66
2022/03/06 05:37:30;;;;;;;4.60;4.20;;;15.40;48.90;;;;;;5051705;28;20179;-67
2022/03/06 05:39:55;;;;;;;5.05;4.55;;;15.30;48.90;;;;;;5051762;28;20341;-68
2022/03/06 05:42:21;;;;;;;4.72;4.32;;;15.30;48.90;;;;;;5050918;28;20623;-68
2022/03/06 05:44:46;;;;;;;4.65;4.32;;;15.30;48.90;;;;;;5051802;28;20224;-67
2022/03/06 05:47:12;;;;;;;5.28;4.78;;;15.30;48.90;;;;;;5051796;28;20171;-68
2022/03/06 05:49:37;;;;;;;4.85;4.45;;;15.30;48.90;;;;;;5051059;28;20549;-68
2022/03/06 05:52:03;;;;;;;5.43;4.93;;;15.30;48.90;;;;;;5051919;28;20186;-68
2022/03/06 05:54:29;;;;;;;4.80;4.35;;;15.30;48.90;;;;;;5050092;28;20235;-68
2022/03/06 05:56:55;;;;;;;4.20;3.90;;;15.30;48.90;;;;;;5052563;28;20182;-68
2022/03/06 05:59:21;;;;;;;4.60;4.20;;;15.30;48.90;;;;;;5055178;28;20237;-67
2022/03/06 06:01:46;;;;;;;4.63;4.22;;;15.30;48.90;;;;;;5055346;28;20194;-67
2022/03/06 06:04:12;;;;;;;4.20;3.88;;;15.30;48.80;;;;;;5054248;28;20669;-67
2022/03/06 06:06:38;;;;;;;5.05;4.65;;;15.40;48.80;;;;;;5055385;28;20170;-67
2022/03/06 06:09:03;;;;;;;4.45;4.05;;;15.40;48.60;;;;;;5055207;28;20202;-67
2022/03/06 06:11:29;;;;;;;4.43;4.03;;;15.50;48.50;;;;;;5054249;28;20171;-68
2022/03/06 06:13:54;;;;;;;4.90;4.40;;;15.70;48.40;;;;;;5055386;28;20182;-68
2022/03/06 06:16:20;;;;;;;4.30;3.90;;;15.80;48.30;;;;;;5054890;28;20167;-67
2022/03/06 06:18:45;;;;;;;4.15;3.75;;;15.90;48.20;;;;;;5054567;28;20195;-68
2022/03/06 06:21:11;;;;;;;4.30;4.00;;;16.00;48.10;;;;;;5054680;28;20209;-68
2022/03/06 06:23:37;;;;;;;3.72;3.42;;;16.10;48.10;;;;;;5054962;28;20171;-69
2022/03/06 06:26:02;;;;;;;3.63;3.33;;;16.20;47.90;;;;;;5054260;28;20175;-68
2022/03/06 06:28:28;;;;;;;4.10;3.80;;;16.40;47.70;;;;;;5054619;28;20171;-67
2022/03/06 06:30:53;;;;;;;3.53;3.22;;;16.50;47.50;;;;;;5054969;28;20174;-67
2022/03/06 06:33:19;;;;;;;3.70;3.40;;;16.70;48.00;;;;;;5053804;28;20183;-66
2022/03/06 06:35:44;;;;;;;4.03;3.67;;;16.70;47.20;;;;;;5054829;28;20752;-65
2022/03/06 06:38:10;;;;;;;3.63;3.33;;;16.80;47.10;;;;;;5054352;28;20211;-66
2022/03/06 06:40:35;;;;;;;3.72;3.42;;;16.90;47.10;;;;;;5054168;28;20202;-66
2022/03/06 06:43:01;;;;;;;3.70;3.40;;;16.90;47.00;;;;;;5054830;28;20504;-67
2022/03/06 06:45:26;;;;;;;3.45;3.15;;;16.90;47.00;;;;;;5053857;28;20262;-67
2022/03/06 06:47:52;;;;;;;3.70;3.40;;;16.90;46.90;;;;;;5054690;28;20183;-69
2022/03/06 06:50:17;;;;;;;3.75;3.35;;;17.00;47.00;;;;;;5054098;28;20607;-68
2022/03/06 06:52:43;;;;;;;3.25;3.05;;;16.90;46.90;;;;;;5053810;28;20211;-68
2022/03/06 06:55:09;;;;;;;3.88;3.58;;;16.90;47.00;;;;;;5053961;28;20222;-69
2022/03/06 06:57:37;;;;;;;3.58;3.28;;;16.80;47.10;;;;;;5054281;28;20163;-67
2022/03/06 07:00:03;;;;;;;3.80;3.47;;;16.90;47.30;;;;;;5053660;28;20215;-68
2022/03/06 07:02:29;;;;;;;3.20;2.90;;;16.80;47.30;;;;;;5053852;28;20496;-67
2022/03/06 07:04:54;;;;;;;3.50;3.20;;;16.80;47.40;;;;;;5054298;28;20171;-66
2022/03/06 07:07:20;;;;;;;3.40;3.10;;;16.80;47.40;;;;;;5053090;28;20194;-66
2022/03/06 07:09:45;;;;;;;3.40;3.10;;;16.90;47.30;;;;;;5052994;28;20200;-67
2022/03/06 07:12:11;;;;;;;3.33;3.03;;;16.90;47.30;;;;;;5053998;28;20625;-68
2022/03/06 07:14:37;;;;;;;3.42;3.13;;;17.00;47.20;;;;;;5053281;28;20179;-68
2022/03/06 07:17:03;;;;;;;3.00;2.80;;;17.10;47.10;;;;;;5054123;28;20171;-67
2022/03/06 07:19:28;;;;;;;3.42;3.13;;;17.10;47.00;;;;;;5053644;28;20202;-67
2022/03/06 07:21:54;;;;;;;3.10;2.80;;;17.20;46.90;;;;;;5053119;28;20168;-68
2022/03/06 07:24:19;;;;;;;3.30;3.00;;;17.20;46.80;;;;;;5053577;28;20225;-69
2022/03/06 07:26:45;;;;;;;2.70;2.50;;;17.30;46.80;;;;;;5053625;28;20542;-68
2022/03/06 07:29:10;;;;;;;3.22;2.92;;;17.30;46.90;;;;;;5052864;28;20258;-67
2022/03/06 07:31:36;;;;;;;3.10;2.90;;;17.20;46.90;;;;;;5053863;28;20167;-67
2022/03/06 07:34:01;;;;;;;3.38;3.00;;;17.20;47.00;;;;;;5053681;28;20270;-65
2022/03/06 07:36:27;;;;;;;2.90;2.70;;;17.20;47.10;;;;;;5052604;28;20167;-66
2022/03/06 07:38:52;;;;;;;3.03;2.83;;;17.40;47.10;;;;;;5053348;28;20257;-66
2022/03/06 07:41:18;;;;;;;3.20;3.00;;;17.50;46.90;;;;;;5053338;28;20690;-67
2022/03/06 07:43:44;;;;;;;2.85;2.65;;;17.70;46.80;;;;;;5052846;28;20178;-67
2022/03/06 07:46:09;;;;;;;3.22;3.03;;;17.80;46.60;;;;;;5053246;28;20539;-67
2022/03/06 07:48:35;;;;;;;3.33;3.03;;;18.00;46.40;;;;;;5052662;28;20622;-68
2022/03/06 07:51:01;;;;;;;3.28;3.08;;;18.10;46.30;;;;;;5053172;28;20178;-68
2022/03/06 07:53:26;;;;;;;3.10;2.90;;;18.20;46.00;;;;;;5052818;28;20186;-68
2022/03/06 07:55:52;;;;;;;2.60;2.40;;;18.30;46.00;;;;;;5052252;28;20340;-68
2022/03/06 07:58:17;;;;;;;3.03;2.83;;;18.30;46.00;;;;;;5052963;28;20580;-67
2022/03/06 08:00:43;;;;;;;2.70;2.50;;;18.30;45.90;;;;;;5053212;28;20685;-67
2022/03/06 08:03:09;;;;;;;2.65;2.45;;;18.40;46.00;;;;;;5052221;28;20253;-67
2022/03/06 08:05:34;;;;;;;2.30;2.20;;;18.40;45.90;;;;;;5053076;28;20179;-67
2022/03/06 08:08:00;;;;;;;3.67;3.13;;;18.50;45.90;;;;;;5053030;28;20206;-68
2022/03/06 08:10:26;;;;;;;2.78;2.58;;;18.50;45.90;;;;;;5052119;28;20175;-69
2022/03/06 08:12:51;;;;;;;2.50;2.30;;;18.50;45.80;;;;;;5053058;28;20175;-68
2022/03/06 08:15:17;;;;;;;2.80;2.60;;;18.50;45.90;;;;;;5052810;28;20582;-68
2022/03/06 08:17:42;;;;;;;3.03;2.72;;;18.50;45.90;;;;;;5052011;28;20618;-72
2022/03/06 08:20:08;;;;;;;3.92;3.03;;;18.60;46.00;;;;;;5052612;28;20665;-72
2022/03/06 08:22:34;;;;;;;3.88;3.53;;;18.60;45.60;;;;;;5053679;28;20618;-72
2022/03/06 08:25:00;;;;;;;3.33;3.03;;;18.50;45.40;;;;;;5052679;28;20665;-71
2022/03/06 08:27:25;;;;;;;3.90;3.30;;;18.60;45.00;;;;;;5052684;28;20269;-73
2022/03/06 08:29:51;;;;;;;5.00;3.40;;;18.60;44.70;;;;;;5052882;28;20171;-69
2022/03/06 08:32:16;;;;;;;4.38;3.35;;;18.70;44.50;;;;;;5051724;28;20171;-70
2022/03/06 08:34:42;;;;;;;4.30;3.05;;;18.70;44.40;;;;;;5052713;28;20626;-68
2022/03/06 08:37:07;;;;;;;4.43;3.50;;;18.60;44.10;;;;;;5052272;28;20182;-68
2022/03/06 08:39:33;;;;;;;3.97;3.35;;;18.60;44.00;;;;;;5052102;28;20676;-69
2022/03/06 08:41:59;;;;;;;4.93;3.60;;;18.70;43.90;;;;;;5053116;28;20680;-69
2022/03/06 08:44:24;;;;;;;3.63;3.33;;;18.70;43.80;;;;;;5052098;28;20175;-69
2022/03/06 08:46:50;;;;;;;4.40;4.00;;;18.70;43.60;;;;;;5051741;28;20260;-70
2022/03/06 08:49:15;;;;;;;6.10;3.42;;;18.70;43.60;;;;;;5051459;28;20175;-72
2022/03/06 08:51:41;;;;;;;4.00;3.53;;;18.60;43.60;;;;;;5051840;28;20167;-69
2022/03/06 08:54:07;;;;;;;3.97;3.20;;;18.60;43.60;;;;;;5051576;28;20215;-71
2022/03/06 08:56:32;;;;;;;3.33;3.00;;;18.70;43.40;;;;;;5052562;28;20175;-69
2022/03/06 08:58:58;;;;;;;4.07;3.30;;;18.70;43.30;;;;;;5051939;28;20206;-69
2022/03/06 09:01:23;;;;;;;3.38;3.05;;;18.70;43.30;;;;;;5052241;28;20194;-69
2022/03/06 09:03:49;;;;;;;2.95;2.70;;;18.70;43.10;;;;;;5052421;28;20174;-69
2022/03/06 09:06:14;;;;;;;3.83;3.33;;;18.70;43.10;;;;;;5051226;28;20183;-67
2022/03/06 09:08:40;;;;;;;4.43;3.08;;;18.60;43.20;;;;;;5052589;28;20175;-71
2022/03/06 09:11:08;;;;;;;3.35;3.05;;;18.60;42.80;;;;;;5052341;28;20179;-67
2022/03/06 09:13:34;;;;;;;3.70;3.33;;;18.60;42.70;;;;;;5051407;28;20637;-68
2022/03/06 09:16:00;;;;;;;5.10;3.20;;;18.60;42.80;;;;;;5052414;28;20201;-70
2022/03/06 09:18:26;;;;;;;4.40;2.75;;;18.60;43.00;;;;;;5051912;28;20179;-68
2022/03/06 09:20:51;;;;;;;3.85;2.85;;;18.60;43.20;;;;;;5051351;28;20257;-68
2022/03/06 09:23:17;;;;;;;5.30;2.90;;;18.60;43.40;;;;;;5052054;28;20163;-67
2022/03/06 09:25:42;;;;;;;4.55;3.33;;;18.60;43.50;;;;;;5046953;28;20176;-67
2022/03/06 09:28:08;;;;;;;3.30;2.95;;;18.60;43.60;;;;;;5046158;28;20179;-68
2022/03/06 09:30:34;;;;;;;2.97;2.65;;;18.50;43.60;;;;;;5038137;28;20182;-66
2022/03/06 09:32:59;;;;;;;2.88;2.67;;;18.50;43.60;;;;;;5054900;28;20193;-65
2022/03/06 09:35:25;;;;;;;3.08;2.70;;;18.50;43.60;;;;;;5054950;28;20248;-65
2022/03/06 09:37:51;;;;;;;3.95;2.85;;;18.50;43.60;;;;;;5056235;28;20634;-64
2022/03/06 09:40:17;;;;;;;3.00;2.72;;;18.50;43.60;;;;;;5055507;28;20230;-66
2022/03/06 09:42:42;;;;;;;4.15;2.78;;;18.50;43.50;;;;;;5055111;28;20179;-66
2022/03/06 09:45:09;;;;;;;3.53;2.67;;;18.50;43.50;;;;;;5055543;28;20176;-67
2022/03/06 09:47:35;;;;;;;3.33;2.60;;;18.50;43.40;;;;;;5055883;28;20178;-67
2022/03/06 09:50:01;;;;;;;2.80;2.53;;;18.50;43.40;;;;;;5054909;28;20171;-66
2022/03/06 09:52:27;;;;;;;2.80;2.50;;;18.50;43.40;;;;;;5055457;28;20186;-67
2022/03/06 09:54:53;;;;;;;3.53;2.88;;;18.40;43.30;;;;;;5055362;28;20222;-66
2022/03/06 09:57:19;;;;;;;2.65;2.28;;;18.40;43.40;;;;;;5054547;28;20269;-66
2022/03/06 09:59:44;;;;;;;3.67;2.85;;;18.40;43.50;;;;;;5043500;28;20208;-66
2022/03/06 10:02:10;;;;;;;3.55;2.60;;;18.40;43.50;;;;;;5034646;28;20206;-65
2022/03/06 10:04:36;;;;;;;2.63;2.42;;;18.40;43.60;;;;;;5035307;28;20258;-66
2022/03/06 10:07:06;;;;;;;2.33;2.13;;;18.40;43.60;;;;;;5035602;28;20179;-66
2022/03/06 10:09:32;;;;;;;3.28;2.40;;;18.50;43.50;;;;;;5034566;28;21102;-66
2022/03/06 10:11:57;;;;;;;2.65;2.35;;;18.50;43.50;;;;;;5035409;28;20180;-67
2022/03/06 10:14:41;;;;;;;2.72;2.15;;;18.40;43.40;;;;;;5034810;28;20701;-67
2022/03/06 10:17:17;;;;;;;2.85;2.55;;;18.40;43.40;;;;;;5034092;28;20192;-67
2022/03/06 10:20:06;;;;;;;2.95;2.28;;;18.40;43.50;;;;;;5035206;28;20218;-67
2022/03/06 10:22:39;;;;;;;3.00;2.70;;;18.30;43.50;;;;;;5029439;28;20201;-66
2022/03/06 10:25:16;;;;;;;2.60;2.40;;;18.30;43.70;;;;;;5034402;28;20720;-68
2022/03/06 10:27:57;;;;;;;2.90;2.33;;;18.30;43.70;;;;;;5035120;28;20245;-67
2022/03/06 10:30:28;;;;;;;2.70;2.50;;;18.30;43.70;;;;;;5034306;28;20234;-67
2022/03/06 10:32:54;;;;;;;2.17;2.08;;;18.40;43.70;;;;;;5038494;28;20699;-66
2022/03/06 10:35:24;;;;;;;2.92;2.45;;;18.30;43.60;;;;;;5054654;28;20179;-66
2022/03/06 10:37:50;;;;;;;2.40;2.20;;;18.40;43.60;;;;;;5053979;28;20270;-66
2022/03/06 10:40:17;;;;;;;2.42;2.22;;;18.40;43.70;;;;;;5054136;28;20999;-65
2022/03/06 10:42:43;;;;;;;2.67;2.25;;;18.30;43.70;;;;;;5053176;28;20657;-65
2022/03/06 10:45:37;;;;;;;2.97;2.20;;;18.30;43.60;;;;;;5052423;28;20388;-65
2022/03/06 10:48:08;;;;;;;2.40;2.20;;;18.30;43.70;;;;;;5053408;28;20210;-67
2022/03/06 10:50:34;;;;;;;3.53;2.60;;;18.10;43.60;;;;;;5054380;28;20209;-68
2022/03/06 10:52:59;;;;;;;2.92;2.35;;;18.30;43.70;;;;;;5053935;28;20195;-66
2022/03/06 10:55:32;;;;;;;2.88;2.08;;;18.40;43.80;;;;;;5053865;28;20218;-67
2022/03/06 10:57:58;;;;;;;2.25;2.05;;;18.40;43.80;;;;;;5054608;28;20233;-66
2022/03/06 11:00:23;;;;;;;3.45;2.17;;;18.40;43.70;;;;;;5053147;28;20211;-67
2022/03/06 11:02:49;;;;;;;2.90;2.10;;;18.50;43.70;;;;;;5053081;28;20175;-66
2022/03/06 11:05:14;;;;;;;3.25;2.20;;;18.50;43.80;;;;;;5053857;28;20225;-66
2022/03/06 11:07:40;;;;;;;2.50;2.00;;;18.50;43.80;;;;;;5052199;28;20229;-66
2022/03/06 11:10:06;;;;;;;3.67;2.33;;;18.40;43.70;;;;;;5052994;28;20567;-67
2022/03/06 11:12:32;;;;;;;3.50;2.10;;;18.40;43.80;;;;;;5052230;28;20699;-67
2022/03/06 11:15:01;;;;;;;2.20;2.00;;;18.50;43.80;;;;;;5053062;28;20183;-68
2022/03/06 11:17:26;;;;;;;1.90;1.80;;;18.50;43.80;;;;;;5052436;28;20214;-67
2022/03/06 11:19:52;;;;;;;2.08;1.88;;;18.50;43.80;;;;;;5052090;28;20249;-68
2022/03/06 11:22:27;;;;;;;4.00;2.00;;;18.40;44.40;;;;;;5053469;28;20246;-68
2022/03/06 11:24:55;;;;;;;2.47;2.28;;;18.50;43.70;;;;;;5052895;28;20182;-68
2022/03/06 11:27:42;;;;;;;2.92;2.20;;;18.50;43.70;;;;;;5051741;28;20254;-67
2022/03/06 11:30:21;;;;;;;3.03;2.53;;;18.50;43.80;;;;;;5053502;28;20183;-68
2022/03/06 11:33:02;;;;;;;3.78;2.28;;;18.40;43.50;;;;;;5050178;28;20175;-65
2022/03/06 11:35:41;;;;;;;2.75;2.55;;;18.40;43.40;;;;;;5032982;28;20187;-69
2022/03/06 11:38:07;;;;;;;4.30;2.33;;;18.40;43.10;;;;;;5033462;28;20549;-67
2022/03/06 11:40:33;;;;;;;2.70;2.00;;;18.40;43.10;;;;;;5033675;28;20222;-69
2022/03/06 11:42:58;;;;;;;4.70;2.60;;;18.50;43.10;;;;;;5033101;28;20263;-70
2022/03/06 11:45:50;;;;;;;4.93;2.20;;;18.50;43.40;;;;;;5033435;28;20203;-69
2022/03/06 11:48:22;;;;;;;3.95;2.13;;;18.50;43.50;;;;;;5032550;28;20246;-71
2022/03/06 11:51:22;;;;;;;2.60;2.33;;;18.50;43.60;;;;;;5033650;28;20176;-70
2022/03/06 11:54:07;;;;;;;4.20;2.10;;;18.40;43.90;;;;;;5033283;28;20177;-69
2022/03/06 11:56:33;;;;;;;2.50;1.90;;;18.50;44.10;;;;;;5032517;28;20182;-69
2022/03/06 11:59:01;;;;;;;1.90;1.70;;;18.50;44.20;;;;;;5033160;28;20172;-68
2022/03/06 12:01:37;;;;;;;2.03;1.83;;;18.50;44.20;;;;;;5032855;28;20545;-69
2022/03/06 12:04:08;;;;;;;2.17;1.95;;;18.60;44.30;;;;;;5032792;28;20179;-69
2022/03/06 12:06:41;;;;;;;3.35;2.47;;;18.60;44.30;;;;;;5033241;28;20184;-67
2022/03/06 12:09:12;;;;;;;4.15;2.42;;;18.60;43.50;;;;;;5032159;28;20180;-68
2022/03/06 12:11:39;;;;;;;2.70;2.00;;;18.60;43.50;;;;;;5032873;28;20255;-69
2022/03/06 12:14:14;;;;;;;4.13;2.67;;;18.60;43.30;;;;;;5033012;28;20682;-71
2022/03/06 12:17:10;;;;;;;3.88;2.75;;;18.50;43.20;;;;;;5031125;28;20187;-70
2022/03/06 12:19:51;;;;;;;2.85;2.17;;;18.50;43.10;;;;;;5032788;28;20208;-69
2022/03/06 12:22:19;;;;;;;2.72;2.33;;;18.40;43.30;;;;;;5032707;28;20179;-70
2022/03/06 12:24:49;;;;;;;3.25;2.47;;;18.30;43.30;;;;;;5031903;28;20704;-70
2022/03/06 12:27:18;;;;;;;4.40;2.20;;;18.30;43.20;;;;;;5032397;28;20187;-69
2022/03/06 12:29:47;;;;;;;4.43;2.50;;;18.20;43.20;;;;;;5032779;28;20310;-70
2022/03/06 12:32:31;;;;;;;2.67;2.47;;;18.20;43.20;;;;;;5031771;28;20259;-68
2022/03/06 12:35:00;;;;;;;3.85;2.47;;;18.20;43.00;;;;;;5032896;28;20179;-68
2022/03/06 12:37:27;;;;;;;2.17;1.98;;;18.30;42.90;;;;;;5031773;28;20590;-68
2022/03/06 12:39:53;;;;;;;4.40;2.38;;;18.30;42.80;;;;;;5032585;28;20239;-69
2022/03/06 12:42:24;;;;;;;3.08;2.40;;;18.30;42.80;;;;;;5032181;28;20214;-70
2022/03/06 12:44:53;;;;;;;2.40;2.20;;;18.30;42.60;;;;;;5031894;28;20214;-69
2022/03/06 12:47:18;;;;;;;3.38;2.38;;;18.30;42.60;;;;;;5032092;28;20569;-70
2022/03/06 12:49:51;;;;;;;3.42;2.25;;;18.30;42.60;;;;;;5032626;28;20187;-70